Terminal Aerodrome Forecast
Issued by NWS

Current Version | Previous Version | Graphics & Text | Print | Product List | Glossary On
Versions: 1 2 3 4 5 6 7 8 9 10 11 12 13 14 15 16 17 18 19 20
000
FTUS41 KRNK 221733
TAFLWB
TAF
KLWB 221733Z 2218/2318 25009KT P6SM VCTS BKN050CB
     FM230200 26004KT P6SM BKN060
     FM230600 00000KT P6SM SCT020 BKN070
     FM231300 25008KT P6SM BKN150=

USA.gov is the U.S. government's official web portal to all federal, state and local government web resources and services.